sensor_id;sensor_type;location;lat;lon;timestamp;P1;durP1;ratioP1;P2;durP2;ratioP2
8252;SDS011;61313;48.396;10.008;2022-09-12T00:00:44;13.80;;;8.77;;
8252;SDS011;61313;48.396;10.008;2022-09-12T00:03:10;13.47;;;9.80;;
8252;SDS011;61313;48.396;10.008;2022-09-12T00:05:39;12.70;;;9.33;;
8252;SDS011;61313;48.396;10.008;2022-09-12T00:08:06;9.90;;;8.90;;
8252;SDS011;61313;48.396;10.008;2022-09-12T00:10:33;9.90;;;8.90;;
8252;SDS011;61313;48.396;10.008;2022-09-12T00:13:03;10.63;;;8.40;;
8252;SDS011;61313;48.396;10.008;2022-09-12T00:15:28;10.20;;;9.30;;
8252;SDS011;61313;48.396;10.008;2022-09-12T00:17:54;10.40;;;9.40;;
8252;SDS011;61313;48.396;10.008;2022-09-12T00:20:20;9.53;;;8.53;;
8252;SDS011;61313;48.396;10.008;2022-09-12T00:22:45;14.00;;;8.87;;
8252;SDS011;61313;48.396;10.008;2022-09-12T00:25:11;10.20;;;9.20;;
8252;SDS011;61313;48.396;10.008;2022-09-12T00:27:37;13.70;;;8.57;;
8252;SDS011;61313;48.396;10.008;2022-09-12T00:30:03;15.60;;;10.17;;
8252;SDS011;61313;48.396;10.008;2022-09-12T00:32:29;11.73;;;9.50;;
8252;SDS011;61313;48.396;10.008;2022-09-12T00:34:55;13.47;;;9.00;;
8252;SDS011;61313;48.396;10.008;2022-09-12T00:37:20;11.23;;;9.60;;
8252;SDS011;61313;48.396;10.008;2022-09-12T00:39:46;16.13;;;9.53;;
8252;SDS011;61313;48.396;10.008;2022-09-12T00:42:12;10.60;;;9.20;;
8252;SDS011;61313;48.396;10.008;2022-09-12T00:47:11;14.37;;;8.90;;
8252;SDS011;61313;48.396;10.008;2022-09-12T00:49:59;10.77;;;9.70;;
8252;SDS011;61313;48.396;10.008;2022-09-12T00:52:41;19.37;;;10.37;;
8252;SDS011;61313;48.396;10.008;2022-09-12T00:57:42;12.93;;;9.37;;
8252;SDS011;61313;48.396;10.008;2022-09-12T01:00:15;10.30;;;9.33;;
8252;SDS011;61313;48.396;10.008;2022-09-12T01:02:44;10.73;;;9.47;;
8252;SDS011;61313;48.396;10.008;2022-09-12T01:05:14;9.83;;;8.70;;
8252;SDS011;61313;48.396;10.008;2022-09-12T01:07:41;11.20;;;10.13;;
8252;SDS011;61313;48.396;10.008;2022-09-12T01:10:09;11.97;;;9.90;;
8252;SDS011;61313;48.396;10.008;2022-09-12T01:12:36;11.70;;;10.47;;
8252;SDS011;61313;48.396;10.008;2022-09-12T01:15:05;13.07;;;9.50;;
8252;SDS011;61313;48.396;10.008;2022-09-12T01:18:17;19.27;;;10.03;;
8252;SDS011;61313;48.396;10.008;2022-09-12T01:26:22;11.30;;;10.20;;
8252;SDS011;61313;48.396;10.008;2022-09-12T01:29:01;13.93;;;11.17;;
8252;SDS011;61313;48.396;10.008;2022-09-12T01:31:58;10.70;;;9.60;;
8252;SDS011;61313;48.396;10.008;2022-09-12T01:50:20;12.43;;;9.90;;
8252;SDS011;61313;48.396;10.008;2022-09-12T01:53:03;10.50;;;9.20;;
8252;SDS011;61313;48.396;10.008;2022-09-12T01:55:44;18.27;;;9.50;;
8252;SDS011;61313;48.396;10.008;2022-09-12T01:58:22;13.70;;;10.17;;
8252;SDS011;61313;48.396;10.008;2022-09-12T02:03:38;11.50;;;10.23;;
8252;SDS011;61313;48.396;10.008;2022-09-12T02:06:32;9.93;;;8.50;;
8252;SDS011;61313;48.396;10.008;2022-09-12T02:09:13;11.23;;;10.07;;
8252;SDS011;61313;48.396;10.008;2022-09-12T02:11:46;11.97;;;10.30;;
8252;SDS011;61313;48.396;10.008;2022-09-12T02:14:20;11.57;;;8.53;;
8252;SDS011;61313;48.396;10.008;2022-09-12T02:19:28;11.27;;;8.97;;
8252;SDS011;61313;48.396;10.008;2022-09-12T02:22:00;10.80;;;9.70;;
8252;SDS011;61313;48.396;10.008;2022-09-12T02:24:32;13.73;;;8.73;;
8252;SDS011;61313;48.396;10.008;2022-09-12T02:27:04;12.97;;;10.20;;
8252;SDS011;61313;48.396;10.008;2022-09-12T02:29:34;12.70;;;9.03;;
8252;SDS011;61313;48.396;10.008;2022-09-12T02:32:03;12.53;;;9.67;;
8252;SDS011;61313;48.396;10.008;2022-09-12T02:34:37;10.57;;;9.47;;
8252;SDS011;61313;48.396;10.008;2022-09-12T02:39:35;11.10;;;9.63;;
8252;SDS011;61313;48.396;10.008;2022-09-12T02:42:01;9.93;;;8.93;;
8252;SDS011;61313;48.396;10.008;2022-09-12T02:44:29;14.80;;;9.23;;
8252;SDS011;61313;48.396;10.008;2022-09-12T02:46:59;12.40;;;8.30;;
8252;SDS011;61313;48.396;10.008;2022-09-12T02:49:32;12.13;;;9.93;;
8252;SDS011;61313;48.396;10.008;2022-09-12T02:51:58;10.83;;;9.70;;
8252;SDS011;61313;48.396;10.008;2022-09-12T02:54:25;10.80;;;8.80;;
8252;SDS011;61313;48.396;10.008;2022-09-12T02:56:51;10.10;;;9.10;;
8252;SDS011;61313;48.396;10.008;2022-09-12T02:59:17;9.33;;;8.33;;
8252;SDS011;61313;48.396;10.008;2022-09-12T03:26:48;12.73;;;10.43;;
8252;SDS011;61313;48.396;10.008;2022-09-12T03:29:19;20.40;;;11.70;;
8252;SDS011;61313;48.396;10.008;2022-09-12T03:31:49;20.53;;;11.60;;
8252;SDS011;61313;48.396;10.008;2022-09-12T03:34:20;13.17;;;11.77;;
8252;SDS011;61313;48.396;10.008;2022-09-12T03:36:47;11.97;;;10.83;;
8252;SDS011;61313;48.396;10.008;2022-09-12T03:39:13;13.17;;;10.23;;
8252;SDS011;61313;48.396;10.008;2022-09-12T03:41:39;11.63;;;10.33;;
8252;SDS011;61313;48.396;10.008;2022-09-12T03:44:05;17.10;;;10.40;;
8252;SDS011;61313;48.396;10.008;2022-09-12T03:46:31;12.20;;;10.00;;
8252;SDS011;61313;48.396;10.008;2022-09-12T03:48:57;12.23;;;10.00;;
8252;SDS011;61313;48.396;10.008;2022-09-12T03:51:22;11.50;;;10.27;;
8252;SDS011;61313;48.396;10.008;2022-09-12T03:53:48;10.73;;;9.67;;
8252;SDS011;61313;48.396;10.008;2022-09-12T03:56:14;17.00;;;10.80;;
8252;SDS011;61313;48.396;10.008;2022-09-12T03:58:40;11.50;;;10.30;;
8252;SDS011;61313;48.396;10.008;2022-09-12T04:01:06;13.10;;;11.07;;
8252;SDS011;61313;48.396;10.008;2022-09-12T04:03:36;24.13;;;10.50;;
8252;SDS011;61313;48.396;10.008;2022-09-12T04:06:11;418.67;;;38.90;;
8252;SDS011;61313;48.396;10.008;2022-09-12T04:08:39;23.00;;;10.67;;
8252;SDS011;61313;48.396;10.008;2022-09-12T04:11:07;12.20;;;9.30;;
8252;SDS011;61313;48.396;10.008;2022-09-12T04:13:37;18.40;;;9.80;;
8252;SDS011;61313;48.396;10.008;2022-09-12T04:16:05;19.93;;;9.13;;
8252;SDS011;61313;48.396;10.008;2022-09-12T04:18:31;14.33;;;9.93;;
8252;SDS011;61313;48.396;10.008;2022-09-12T04:20:57;13.83;;;8.80;;
8252;SDS011;61313;48.396;10.008;2022-09-12T04:23:27;8.67;;;7.87;;
8252;SDS011;61313;48.396;10.008;2022-09-12T04:25:53;14.10;;;7.37;;
8252;SDS011;61313;48.396;10.008;2022-09-12T04:28:19;29.83;;;9.00;;
8252;SDS011;61313;48.396;10.008;2022-09-12T04:30:45;35.97;;;8.40;;
8252;SDS011;61313;48.396;10.008;2022-09-12T04:33:11;17.47;;;6.73;;
8252;SDS011;61313;48.396;10.008;2022-09-12T04:35:37;14.73;;;6.20;;
8252;SDS011;61313;48.396;10.008;2022-09-12T04:38:03;13.83;;;7.50;;
8252;SDS011;61313;48.396;10.008;2022-09-12T04:40:29;6.77;;;5.90;;
8252;SDS011;61313;48.396;10.008;2022-09-12T04:42:55;9.67;;;6.27;;
8252;SDS011;61313;48.396;10.008;2022-09-12T04:45:21;18.00;;;7.00;;
8252;SDS011;61313;48.396;10.008;2022-09-12T04:47:47;8.20;;;6.40;;
8252;SDS011;61313;48.396;10.008;2022-09-12T04:50:13;7.33;;;6.63;;
8252;SDS011;61313;48.396;10.008;2022-09-12T04:52:39;16.60;;;7.00;;
8252;SDS011;61313;48.396;10.008;2022-09-12T04:55:06;7.30;;;6.60;;
8252;SDS011;61313;48.396;10.008;2022-09-12T04:57:32;7.73;;;6.60;;
8252;SDS011;61313;48.396;10.008;2022-09-12T04:59:58;9.10;;;6.90;;
8252;SDS011;61313;48.396;10.008;2022-09-12T05:02:24;13.30;;;6.90;;
8252;SDS011;61313;48.396;10.008;2022-09-12T05:04:49;6.43;;;5.83;;
8252;SDS011;61313;48.396;10.008;2022-09-12T05:07:16;23.20;;;7.60;;
8252;SDS011;61313;48.396;10.008;2022-09-12T05:09:43;12.93;;;8.00;;
8252;SDS011;61313;48.396;10.008;2022-09-12T05:12:09;12.97;;;8.27;;
8252;SDS011;61313;48.396;10.008;2022-09-12T05:14:35;9.07;;;7.77;;
8252;SDS011;61313;48.396;10.008;2022-09-12T05:17:01;9.20;;;7.77;;
8252;SDS011;61313;48.396;10.008;2022-09-12T05:19:30;33.10;;;9.20;;
8252;SDS011;61313;48.396;10.008;2022-09-12T05:21:56;21.00;;;8.53;;
8252;SDS011;61313;48.396;10.008;2022-09-12T05:24:23;16.40;;;9.33;;
8252;SDS011;61313;48.396;10.008;2022-09-12T05:26:49;22.80;;;9.50;;
8252;SDS011;61313;48.396;10.008;2022-09-12T05:29:15;33.27;;;11.97;;
8252;SDS011;61313;48.396;10.008;2022-09-12T05:31:40;31.00;;;11.87;;
8252;SDS011;61313;48.396;10.008;2022-09-12T05:34:06;22.27;;;12.20;;
8252;SDS011;61313;48.396;10.008;2022-09-12T05:36:34;20.60;;;12.13;;
8252;SDS011;61313;48.396;10.008;2022-09-12T05:39:01;31.07;;;14.97;;
8252;SDS011;61313;48.396;10.008;2022-09-12T05:41:29;23.67;;;12.37;;
8252;SDS011;61313;48.396;10.008;2022-09-12T05:43:57;18.90;;;11.97;;
8252;SDS011;61313;48.396;10.008;2022-09-12T05:46:26;33.47;;;14.27;;
8252;SDS011;61313;48.396;10.008;2022-09-12T05:48:54;14.60;;;12.00;;
8252;SDS011;61313;48.396;10.008;2022-09-12T05:51:21;39.73;;;14.27;;
8252;SDS011;61313;48.396;10.008;2022-09-12T05:53:51;21.03;;;12.30;;
8252;SDS011;61313;48.396;10.008;2022-09-12T05:56:18;24.73;;;12.43;;
8252;SDS011;61313;48.396;10.008;2022-09-12T05:58:49;25.30;;;14.50;;
8252;SDS011;61313;48.396;10.008;2022-09-12T06:01:36;50.77;;;13.10;;
8252;SDS011;61313;48.396;10.008;2022-09-12T06:04:03;15.50;;;12.40;;
8252;SDS011;61313;48.396;10.008;2022-09-12T06:06:30;15.73;;;11.93;;
8252;SDS011;61313;48.396;10.008;2022-09-12T06:08:59;55.53;;;16.30;;
8252;SDS011;61313;48.396;10.008;2022-09-12T06:11:27;17.70;;;12.10;;
8252;SDS011;61313;48.396;10.008;2022-09-12T06:13:55;46.80;;;13.50;;
8252;SDS011;61313;48.396;10.008;2022-09-12T06:16:23;61.13;;;15.50;;
8252;SDS011;61313;48.396;10.008;2022-09-12T06:18:51;30.97;;;11.80;;
8252;SDS011;61313;48.396;10.008;2022-09-12T06:21:18;25.10;;;14.27;;
8252;SDS011;61313;48.396;10.008;2022-09-12T06:23:45;94.07;;;38.37;;
8252;SDS011;61313;48.396;10.008;2022-09-12T06:26:12;167.73;;;88.73;;
8252;SDS011;61313;48.396;10.008;2022-09-12T06:28:41;171.37;;;129.23;;
8252;SDS011;61313;48.396;10.008;2022-09-12T06:31:28;92.27;;;53.80;;
8252;SDS011;61313;48.396;10.008;2022-09-12T06:33:56;121.77;;;89.03;;
8252;SDS011;61313;48.396;10.008;2022-09-12T06:36:25;82.17;;;34.17;;
8252;SDS011;61313;48.396;10.008;2022-09-12T06:38:54;134.47;;;83.93;;
8252;SDS011;61313;48.396;10.008;2022-09-12T06:41:28;63.80;;;35.10;;
8252;SDS011;61313;48.396;10.008;2022-09-12T06:43:55;113.73;;;51.50;;
8252;SDS011;61313;48.396;10.008;2022-09-12T06:46:21;118.60;;;56.60;;
8252;SDS011;61313;48.396;10.008;2022-09-12T06:48:47;116.43;;;47.17;;
8252;SDS011;61313;48.396;10.008;2022-09-12T06:51:14;48.77;;;27.70;;
8252;SDS011;61313;48.396;10.008;2022-09-12T06:53:41;70.90;;;32.60;;
8252;SDS011;61313;48.396;10.008;2022-09-12T06:58:41;46.77;;;30.90;;
8252;SDS011;61313;48.396;10.008;2022-09-12T07:03:34;45.57;;;24.70;;
8252;SDS011;61313;48.396;10.008;2022-09-12T07:06:05;46.90;;;23.27;;
8252;SDS011;61313;48.396;10.008;2022-09-12T07:08:35;43.27;;;23.90;;
8252;SDS011;61313;48.396;10.008;2022-09-12T07:11:15;39.30;;;23.37;;
8252;SDS011;61313;48.396;10.008;2022-09-12T07:13:44;47.37;;;26.17;;
8252;SDS011;61313;48.396;10.008;2022-09-12T07:16:11;51.53;;;28.60;;
8252;SDS011;61313;48.396;10.008;2022-09-12T07:18:38;47.70;;;26.30;;
8252;SDS011;61313;48.396;10.008;2022-09-12T07:21:05;75.10;;;30.27;;
8252;SDS011;61313;48.396;10.008;2022-09-12T07:23:34;53.80;;;27.37;;
8252;SDS011;61313;48.396;10.008;2022-09-12T07:26:00;56.97;;;33.53;;
8252;SDS011;61313;48.396;10.008;2022-09-12T07:28:27;74.53;;;46.43;;
8252;SDS011;61313;48.396;10.008;2022-09-12T07:30:54;61.93;;;37.33;;
8252;SDS011;61313;48.396;10.008;2022-09-12T07:33:25;75.33;;;46.87;;
8252;SDS011;61313;48.396;10.008;2022-09-12T07:35:52;77.80;;;46.17;;
8252;SDS011;61313;48.396;10.008;2022-09-12T07:38:21;80.07;;;44.93;;
8252;SDS011;61313;48.396;10.008;2022-09-12T07:40:47;54.27;;;31.80;;
8252;SDS011;61313;48.396;10.008;2022-09-12T07:43:13;77.27;;;51.17;;
8252;SDS011;61313;48.396;10.008;2022-09-12T07:45:39;77.17;;;55.03;;
8252;SDS011;61313;48.396;10.008;2022-09-12T07:48:06;76.57;;;52.27;;
8252;SDS011;61313;48.396;10.008;2022-09-12T07:50:33;80.43;;;50.17;;
8252;SDS011;61313;48.396;10.008;2022-09-12T07:53:00;74.97;;;43.73;;
8252;SDS011;61313;48.396;10.008;2022-09-12T07:55:27;81.23;;;51.83;;
8252;SDS011;61313;48.396;10.008;2022-09-12T07:57:53;61.87;;;36.67;;
8252;SDS011;61313;48.396;10.008;2022-09-12T08:00:19;58.30;;;37.00;;
8252;SDS011;61313;48.396;10.008;2022-09-12T08:02:49;62.70;;;35.50;;
8252;SDS011;61313;48.396;10.008;2022-09-12T08:05:18;60.13;;;33.70;;
8252;SDS011;61313;48.396;10.008;2022-09-12T08:07:44;53.13;;;29.43;;
8252;SDS011;61313;48.396;10.008;2022-09-12T08:10:10;50.27;;;24.20;;
8252;SDS011;61313;48.396;10.008;2022-09-12T08:12:36;33.17;;;22.20;;
8252;SDS011;61313;48.396;10.008;2022-09-12T08:15:02;35.10;;;21.77;;
8252;SDS011;61313;48.396;10.008;2022-09-12T08:17:28;33.17;;;18.80;;
8252;SDS011;61313;48.396;10.008;2022-09-12T08:19:54;14.87;;;11.90;;
8252;SDS011;61313;48.396;10.008;2022-09-12T08:22:21;16.03;;;12.60;;
8252;SDS011;61313;48.396;10.008;2022-09-12T08:24:47;19.80;;;11.60;;
8252;SDS011;61313;48.396;10.008;2022-09-12T08:27:13;28.87;;;11.17;;
8252;SDS011;61313;48.396;10.008;2022-09-12T08:29:39;15.37;;;11.70;;
8252;SDS011;61313;48.396;10.008;2022-09-12T08:32:05;15.70;;;10.80;;
8252;SDS011;61313;48.396;10.008;2022-09-12T08:34:31;28.83;;;12.60;;
8252;SDS011;61313;48.396;10.008;2022-09-12T08:36:56;45.10;;;13.60;;
8252;SDS011;61313;48.396;10.008;2022-09-12T08:39:22;21.53;;;10.30;;
8252;SDS011;61313;48.396;10.008;2022-09-12T08:42:09;27.40;;;10.90;;
8252;SDS011;61313;48.396;10.008;2022-09-12T08:47:54;13.60;;;11.37;;
8252;SDS011;61313;48.396;10.008;2022-09-12T08:50:21;35.10;;;14.77;;
8252;SDS011;61313;48.396;10.008;2022-09-12T08:52:51;15.93;;;14.27;;
8252;SDS011;61313;48.396;10.008;2022-09-12T08:57:58;14.20;;;10.07;;
8252;SDS011;61313;48.396;10.008;2022-09-12T09:23:21;12.03;;;8.53;;
8252;SDS011;61313;48.396;10.008;2022-09-12T09:31:11;11.20;;;8.70;;
8252;SDS011;61313;48.396;10.008;2022-09-12T09:33:40;8.13;;;7.40;;
8252;SDS011;61313;48.396;10.008;2022-09-12T09:44:09;7.53;;;6.83;;
8252;SDS011;61313;48.396;10.008;2022-09-12T09:46:35;6.43;;;5.83;;
8252;SDS011;61313;48.396;10.008;2022-09-12T09:49:01;9.40;;;6.33;;
8252;SDS011;61313;48.396;10.008;2022-09-12T09:51:33;15.50;;;7.87;;
8252;SDS011;61313;48.396;10.008;2022-09-12T09:56:37;5.47;;;4.90;;
8252;SDS011;61313;48.396;10.008;2022-09-12T10:01:52;9.60;;;8.40;;
8252;SDS011;61313;48.396;10.008;2022-09-12T10:04:51;7.20;;;6.50;;
8252;SDS011;61313;48.396;10.008;2022-09-12T10:07:19;26.23;;;8.63;;
8252;SDS011;61313;48.396;10.008;2022-09-12T10:12:38;11.63;;;7.20;;
8252;SDS011;61313;48.396;10.008;2022-09-12T10:17:50;11.47;;;8.97;;
8252;SDS011;61313;48.396;10.008;2022-09-12T10:22:53;7.13;;;6.50;;
8252;SDS011;61313;48.396;10.008;2022-09-12T10:25:19;9.50;;;5.30;;
8252;SDS011;61313;48.396;10.008;2022-09-12T10:27:56;9.70;;;5.90;;
8252;SDS011;61313;48.396;10.008;2022-09-12T10:30:24;7.53;;;4.23;;
8252;SDS011;61313;48.396;10.008;2022-09-12T10:32:52;12.10;;;7.43;;
8252;SDS011;61313;48.396;10.008;2022-09-12T10:35:28;15.37;;;5.83;;
8252;SDS011;61313;48.396;10.008;2022-09-12T10:38:06;14.57;;;5.93;;
8252;SDS011;61313;48.396;10.008;2022-09-12T10:40:58;60.70;;;10.83;;
8252;SDS011;61313;48.396;10.008;2022-09-12T10:43:35;9.83;;;5.43;;
8252;SDS011;61313;48.396;10.008;2022-09-12T10:48:40;8.20;;;4.50;;
8252;SDS011;61313;48.396;10.008;2022-09-12T10:51:10;5.40;;;4.97;;
8252;SDS011;61313;48.396;10.008;2022-09-12T10:53:48;8.07;;;5.90;;
8252;SDS011;61313;48.396;10.008;2022-09-12T10:56:17;18.07;;;6.90;;
8252;SDS011;61313;48.396;10.008;2022-09-12T11:06:47;11.20;;;5.20;;
8252;SDS011;61313;48.396;10.008;2022-09-12T11:21:25;6.93;;;4.60;;
8252;SDS011;61313;48.396;10.008;2022-09-12T11:34:11;6.07;;;4.93;;
8252;SDS011;61313;48.396;10.008;2022-09-12T11:39:31;5.27;;;4.70;;
8252;SDS011;61313;48.396;10.008;2022-09-12T11:42:04;10.77;;;5.20;;
8252;SDS011;61313;48.396;10.008;2022-09-12T11:44:38;10.90;;;5.13;;
8252;SDS011;61313;48.396;10.008;2022-09-12T11:47:09;12.83;;;5.80;;
8252;SDS011;61313;48.396;10.008;2022-09-12T11:49:39;8.93;;;5.10;;
8252;SDS011;61313;48.396;10.008;2022-09-12T11:57:46;8.17;;;6.83;;
8252;SDS011;61313;48.396;10.008;2022-09-12T12:00:26;13.47;;;6.93;;
8252;SDS011;61313;48.396;10.008;2022-09-12T12:05:39;10.83;;;6.90;;
8252;SDS011;61313;48.396;10.008;2022-09-12T12:08:16;18.10;;;5.73;;
8252;SDS011;61313;48.396;10.008;2022-09-12T12:10:44;11.03;;;6.27;;
8252;SDS011;61313;48.396;10.008;2022-09-12T12:13:40;7.93;;;5.53;;
8252;SDS011;61313;48.396;10.008;2022-09-12T12:18:39;16.17;;;5.10;;
8252;SDS011;61313;48.396;10.008;2022-09-12T12:21:34;16.70;;;6.10;;
8252;SDS011;61313;48.396;10.008;2022-09-12T12:34:43;4.37;;;3.90;;
8252;SDS011;61313;48.396;10.008;2022-09-12T12:44:59;4.30;;;3.90;;
8252;SDS011;61313;48.396;10.008;2022-09-12T12:47:32;5.20;;;3.50;;
8252;SDS011;61313;48.396;10.008;2022-09-12T12:50:05;10.00;;;4.50;;
8252;SDS011;61313;48.396;10.008;2022-09-12T12:55:25;7.57;;;4.57;;
8252;SDS011;61313;48.396;10.008;2022-09-12T12:57:58;8.67;;;4.13;;
8252;SDS011;61313;48.396;10.008;2022-09-12T13:00:33;8.00;;;3.33;;
8252;SDS011;61313;48.396;10.008;2022-09-12T13:05:51;6.00;;;3.50;;
8252;SDS011;61313;48.396;10.008;2022-09-12T13:08:25;4.13;;;3.23;;
8252;SDS011;61313;48.396;10.008;2022-09-12T13:11:27;3.60;;;3.30;;
8252;SDS011;61313;48.396;10.008;2022-09-12T13:13:55;3.63;;;3.17;;
8252;SDS011;61313;48.396;10.008;2022-09-12T13:16:34;3.30;;;2.93;;
8252;SDS011;61313;48.396;10.008;2022-09-12T13:19:19;5.47;;;3.43;;
8252;SDS011;61313;48.396;10.008;2022-09-12T13:21:54;3.67;;;3.00;;
8252;SDS011;61313;48.396;10.008;2022-09-12T13:24:22;7.70;;;3.07;;
8252;SDS011;61313;48.396;10.008;2022-09-12T13:26:48;3.53;;;3.20;;
8252;SDS011;61313;48.396;10.008;2022-09-12T13:29:21;12.53;;;4.03;;
8252;SDS011;61313;48.396;10.008;2022-09-12T13:31:58;11.07;;;4.77;;
8252;SDS011;61313;48.396;10.008;2022-09-12T13:34:27;4.00;;;3.67;;
8252;SDS011;61313;48.396;10.008;2022-09-12T13:47:42;4.70;;;2.43;;
8252;SDS011;61313;48.396;10.008;2022-09-12T13:50:29;30.00;;;4.80;;
8252;SDS011;61313;48.396;10.008;2022-09-12T13:53:02;47.10;;;5.83;;
8252;SDS011;61313;48.396;10.008;2022-09-12T13:55:35;14.77;;;2.87;;
8252;SDS011;61313;48.396;10.008;2022-09-12T13:58:04;14.93;;;2.90;;
8252;SDS011;61313;48.396;10.008;2022-09-12T14:00:39;19.43;;;5.50;;
8252;SDS011;61313;48.396;10.008;2022-09-12T14:06:25;11.33;;;3.20;;
8252;SDS011;61313;48.396;10.008;2022-09-12T14:08:52;25.17;;;5.20;;
8252;SDS011;61313;48.396;10.008;2022-09-12T14:11:26;15.13;;;3.47;;
8252;SDS011;61313;48.396;10.008;2022-09-12T14:13:53;26.37;;;4.30;;
8252;SDS011;61313;48.396;10.008;2022-09-12T14:16:20;12.93;;;2.90;;
8252;SDS011;61313;48.396;10.008;2022-09-12T14:18:48;10.50;;;2.57;;
8252;SDS011;61313;48.396;10.008;2022-09-12T14:24:10;6.57;;;3.20;;
8252;SDS011;61313;48.396;10.008;2022-09-12T14:26:38;3.40;;;2.30;;
8252;SDS011;61313;48.396;10.008;2022-09-12T14:29:08;13.60;;;3.67;;
8252;SDS011;61313;48.396;10.008;2022-09-12T14:31:40;16.43;;;2.93;;
8252;SDS011;61313;48.396;10.008;2022-09-12T14:34:12;54.93;;;7.80;;
8252;SDS011;61313;48.396;10.008;2022-09-12T14:36:41;13.60;;;2.90;;
8252;SDS011;61313;48.396;10.008;2022-09-12T14:39:23;30.13;;;4.40;;
8252;SDS011;61313;48.396;10.008;2022-09-12T14:42:15;20.63;;;5.27;;
8252;SDS011;61313;48.396;10.008;2022-09-12T14:45:10;23.90;;;4.40;;
8252;SDS011;61313;48.396;10.008;2022-09-12T14:47:41;9.53;;;2.43;;
8252;SDS011;61313;48.396;10.008;2022-09-12T14:50:14;5.43;;;2.60;;
8252;SDS011;61313;48.396;10.008;2022-09-12T14:52:42;8.57;;;3.37;;
8252;SDS011;61313;48.396;10.008;2022-09-12T14:57:42;10.63;;;3.20;;
8252;SDS011;61313;48.396;10.008;2022-09-12T15:02:41;8.70;;;3.30;;
8252;SDS011;61313;48.396;10.008;2022-09-12T15:07:35;11.03;;;3.33;;
8252;SDS011;61313;48.396;10.008;2022-09-12T15:15:42;7.63;;;2.47;;
8252;SDS011;61313;48.396;10.008;2022-09-12T15:18:10;11.20;;;3.50;;
8252;SDS011;61313;48.396;10.008;2022-09-12T15:20:36;6.00;;;2.80;;
8252;SDS011;61313;48.396;10.008;2022-09-12T15:23:05;18.90;;;3.53;;
8252;SDS011;61313;48.396;10.008;2022-09-12T15:25:34;10.43;;;3.23;;
8252;SDS011;61313;48.396;10.008;2022-09-12T15:28:00;18.07;;;3.17;;
8252;SDS011;61313;48.396;10.008;2022-09-12T15:30:37;13.60;;;4.67;;
8252;SDS011;61313;48.396;10.008;2022-09-12T15:33:03;7.27;;;3.00;;
8252;SDS011;61313;48.396;10.008;2022-09-12T15:35:28;4.53;;;2.60;;
8252;SDS011;61313;48.396;10.008;2022-09-12T15:38:00;6.87;;;2.33;;
8252;SDS011;61313;48.396;10.008;2022-09-12T15:40:28;9.53;;;3.00;;
8252;SDS011;61313;48.396;10.008;2022-09-12T15:42:54;5.17;;;2.93;;
8252;SDS011;61313;48.396;10.008;2022-09-12T15:45:23;23.00;;;4.47;;
8252;SDS011;61313;48.396;10.008;2022-09-12T15:47:52;13.77;;;2.80;;
8252;SDS011;61313;48.396;10.008;2022-09-12T15:50:18;14.77;;;3.70;;
8252;SDS011;61313;48.396;10.008;2022-09-12T15:52:44;14.93;;;2.93;;
8252;SDS011;61313;48.396;10.008;2022-09-12T15:55:11;2.07;;;1.70;;
8252;SDS011;61313;48.396;10.008;2022-09-12T15:57:43;4.60;;;1.93;;
8252;SDS011;61313;48.396;10.008;2022-09-12T16:00:10;4.30;;;2.20;;
8252;SDS011;61313;48.396;10.008;2022-09-12T16:02:36;2.80;;;2.43;;
8252;SDS011;61313;48.396;10.008;2022-09-12T16:05:05;3.30;;;2.43;;
8252;SDS011;61313;48.396;10.008;2022-09-12T16:07:43;5.63;;;2.30;;
8252;SDS011;61313;48.396;10.008;2022-09-12T16:10:12;9.67;;;2.60;;
8252;SDS011;61313;48.396;10.008;2022-09-12T16:12:40;2.57;;;2.00;;
8252;SDS011;61313;48.396;10.008;2022-09-12T16:15:06;20.07;;;4.00;;
8252;SDS011;61313;48.396;10.008;2022-09-12T16:17:38;8.90;;;2.07;;
8252;SDS011;61313;48.396;10.008;2022-09-12T16:20:03;18.07;;;3.83;;
8252;SDS011;61313;48.396;10.008;2022-09-12T16:22:29;15.00;;;3.50;;
8252;SDS011;61313;48.396;10.008;2022-09-12T16:24:56;15.70;;;3.50;;
8252;SDS011;61313;48.396;10.008;2022-09-12T16:27:21;5.00;;;3.00;;
8252;SDS011;61313;48.396;10.008;2022-09-12T16:29:47;3.60;;;2.73;;
8252;SDS011;61313;48.396;10.008;2022-09-12T16:32:16;5.63;;;2.57;;
8252;SDS011;61313;48.396;10.008;2022-09-12T16:34:44;3.00;;;1.90;;
8252;SDS011;61313;48.396;10.008;2022-09-12T16:37:10;8.80;;;3.00;;
8252;SDS011;61313;48.396;10.008;2022-09-12T16:39:36;3.03;;;2.20;;
8252;SDS011;61313;48.396;10.008;2022-09-12T16:42:02;2.80;;;2.50;;
8252;SDS011;61313;48.396;10.008;2022-09-12T16:44:28;8.23;;;2.20;;
8252;SDS011;61313;48.396;10.008;2022-09-12T16:46:55;8.80;;;2.87;;
8252;SDS011;61313;48.396;10.008;2022-09-12T16:49:24;16.53;;;3.53;;
8252;SDS011;61313;48.396;10.008;2022-09-12T16:52:02;5.23;;;1.93;;
8252;SDS011;61313;48.396;10.008;2022-09-12T16:54:28;4.53;;;2.37;;
8252;SDS011;61313;48.396;10.008;2022-09-12T16:56:54;10.67;;;2.60;;
8252;SDS011;61313;48.396;10.008;2022-09-12T16:59:19;5.53;;;1.87;;
8252;SDS011;61313;48.396;10.008;2022-09-12T17:01:45;4.60;;;2.57;;
8252;SDS011;61313;48.396;10.008;2022-09-12T17:04:14;2.07;;;1.70;;
8252;SDS011;61313;48.396;10.008;2022-09-12T17:06:40;3.97;;;2.40;;
8252;SDS011;61313;48.396;10.008;2022-09-12T17:09:07;2.00;;;1.80;;
8252;SDS011;61313;48.396;10.008;2022-09-12T17:11:36;26.67;;;4.07;;
8252;SDS011;61313;48.396;10.008;2022-09-12T17:14:03;6.80;;;2.50;;
8252;SDS011;61313;48.396;10.008;2022-09-12T17:16:31;4.47;;;2.30;;
8252;SDS011;61313;48.396;10.008;2022-09-12T17:19:02;3.13;;;2.37;;
8252;SDS011;61313;48.396;10.008;2022-09-12T17:21:28;3.27;;;2.70;;
8252;SDS011;61313;48.396;10.008;2022-09-12T17:23:54;11.17;;;3.80;;
8252;SDS011;61313;48.396;10.008;2022-09-12T17:26:20;143.33;;;15.03;;
8252;SDS011;61313;48.396;10.008;2022-09-12T17:28:46;73.20;;;8.33;;
8252;SDS011;61313;48.396;10.008;2022-09-12T17:31:12;56.33;;;8.20;;
8252;SDS011;61313;48.396;10.008;2022-09-12T17:33:41;78.00;;;11.13;;
8252;SDS011;61313;48.396;10.008;2022-09-12T17:36:10;88.87;;;10.73;;
8252;SDS011;61313;48.396;10.008;2022-09-12T17:38:39;26.13;;;6.27;;
8252;SDS011;61313;48.396;10.008;2022-09-12T17:41:06;27.30;;;5.57;;
8252;SDS011;61313;48.396;10.008;2022-09-12T17:43:40;58.30;;;36.80;;
8252;SDS011;61313;48.396;10.008;2022-09-12T17:46:06;34.93;;;25.13;;
8252;SDS011;61313;48.396;10.008;2022-09-12T17:48:32;24.90;;;12.00;;
8252;SDS011;61313;48.396;10.008;2022-09-12T17:51:05;7.20;;;4.27;;
8252;SDS011;61313;48.396;10.008;2022-09-12T17:53:31;23.00;;;5.63;;
8252;SDS011;61313;48.396;10.008;2022-09-12T17:56:00;31.37;;;5.90;;
8252;SDS011;61313;48.396;10.008;2022-09-12T17:58:27;52.37;;;9.20;;
8252;SDS011;61313;48.396;10.008;2022-09-12T18:00:58;46.60;;;7.60;;
8252;SDS011;61313;48.396;10.008;2022-09-12T18:03:43;134.20;;;15.73;;
8252;SDS011;61313;48.396;10.008;2022-09-12T18:06:10;64.20;;;10.13;;
8252;SDS011;61313;48.396;10.008;2022-09-12T18:08:36;32.23;;;5.43;;
8252;SDS011;61313;48.396;10.008;2022-09-12T18:11:02;15.03;;;5.50;;
8252;SDS011;61313;48.396;10.008;2022-09-12T18:13:30;12.13;;;8.27;;
8252;SDS011;61313;48.396;10.008;2022-09-12T18:16:01;8.93;;;4.87;;
8252;SDS011;61313;48.396;10.008;2022-09-12T18:18:31;9.60;;;4.10;;
8252;SDS011;61313;48.396;10.008;2022-09-12T18:20:57;6.03;;;4.10;;
8252;SDS011;61313;48.396;10.008;2022-09-12T18:23:26;6.50;;;3.60;;
8252;SDS011;61313;48.396;10.008;2022-09-12T18:25:56;4.20;;;3.80;;
8252;SDS011;61313;48.396;10.008;2022-09-12T18:28:23;4.17;;;3.77;;